Terminal Aerodrome Forecast
Issued by NWS

Home | Current Version | Previous Version | Text Only | Print | Product List | Glossary On
Versions: 1 2 3 4 5 6 7 8 9 10 11 12 13 14
000
FTUS45 KCYS 231135
TAFRWL
TAF
KRWL 231135Z 2312/2412 22010KT P6SM SCT200
     FM231800 26011G19KT P6SM SKC
     FM240100 29011KT P6SM FEW250=

USA.gov is the U.S. government's official web portal to all federal, state and local government web resources and services.